Time;durP1;ratioP1;P1;durP2;ratioP2;P2;SDS_P1;SDS_P2;PMS_P1;PMS_P2;Temp;Humidity;BMP_temperature;BMP_pressure;BME280_temperature;BME280_humidity;BME280_pressure;Samples;Min_cycle;Max_cycle;Signal;HPM_P1;HPM_P2
2023/07/26 00:04:25;;;;;;;3.80;1.10;;;21.00;99.90;;;;;;6177020;22;20068;-81
2023/07/26 00:06:56;;;;;;;3.75;1.42;;;21.00;99.90;;;;;;6097191;23;20032;-81
2023/07/26 00:09:26;;;;;;;1.95;1.10;;;20.90;99.90;;;;;;6125679;23;20024;-81
2023/07/26 00:11:54;;;;;;;5.30;1.63;;;20.90;99.90;;;;;;6118673;23;20009;-81
2023/07/26 00:14:21;;;;;;;2.92;1.55;;;21.00;99.90;;;;;;6134210;23;20025;-81
2023/07/26 00:16:49;;;;;;;4.18;1.63;;;20.90;99.90;;;;;;6113366;23;20014;-81
2023/07/26 00:19:19;;;;;;;3.30;1.67;;;20.80;99.90;;;;;;6112472;23;20026;-81
2023/07/26 00:21:49;;;;;;;2.55;1.23;;;20.80;99.90;;;;;;6140030;23;20064;-81
2023/07/26 00:24:17;;;;;;;4.13;1.50;;;20.00;99.90;;;;;;6116310;23;20025;-81
2023/07/26 00:26:44;;;;;;;3.60;1.38;;;20.80;99.90;;;;;;6117890;23;20077;-81
2023/07/26 00:29:11;;;;;;;4.22;2.00;;;20.70;99.90;;;;;;6119089;23;20018;-81
2023/07/26 00:31:41;;;;;;;3.20;1.42;;;20.60;99.90;;;;;;6111122;23;20026;-81
2023/07/26 00:34:08;;;;;;;3.67;1.48;;;20.70;99.90;;;;;;6137104;23;20037;-81
2023/07/26 00:36:37;;;;;;;2.97;1.58;;;20.60;99.90;;;;;;6114170;23;20273;-81
2023/07/26 00:39:04;;;;;;;1.67;0.98;;;20.60;99.90;;;;;;6113023;23;20026;-81
2023/07/26 00:41:31;;;;;;;3.22;1.60;;;20.50;99.90;;;;;;6137896;23;20021;-81
2023/07/26 00:44:03;;;;;;;3.10;1.25;;;20.40;99.90;;;;;;6123123;23;20008;-81
2023/07/26 00:49:30;;;;;;;3.10;1.50;;;20.40;99.90;;;;;;6255392;22;20034;-79
2023/07/26 00:52:04;;;;;;;4.07;1.25;;;20.30;99.90;;;;;;6208380;23;20020;-80
2023/07/26 00:54:33;;;;;;;2.75;1.40;;;20.20;99.90;;;;;;6243566;22;20062;-81
2023/07/26 01:03:52;;;;;;;4.15;1.20;;;20.50;99.90;;;;;;6264872;22;20050;-81
2023/07/26 01:07:09;;;;;;;3.95;1.42;;;20.50;99.90;;;;;;6154994;23;20055;-82
2023/07/26 01:10:43;;;;;;;4.68;1.75;;;20.50;99.90;;;;;;6267967;22;20575;-80
2023/07/26 01:19:15;;;;;;;3.47;2.03;;;20.40;99.90;;;;;;6276809;22;20034;-79
2023/07/26 01:21:43;;;;;;;2.55;1.25;;;19.50;99.90;;;;;;6229646;22;20024;-80
2023/07/26 01:24:10;;;;;;;1.75;0.80;;;20.20;99.90;;;;;;6223256;22;20030;-80
2023/07/26 01:26:38;;;;;;;2.67;0.80;;;20.20;99.90;;;;;;6226779;22;20023;-80
2023/07/26 01:29:07;;;;;;;2.28;0.90;;;20.20;99.90;;;;;;6228486;22;20020;-80
2023/07/26 01:31:38;;;;;;;3.85;1.08;;;20.10;99.90;;;;;;6205417;22;20023;-80
2023/07/26 01:34:07;;;;;;;2.88;1.02;;;20.20;99.90;;;;;;6230196;22;20015;-80
2023/07/26 01:36:35;;;;;;;4.07;0.98;;;20.10;99.90;;;;;;6257651;22;20372;-80
2023/07/26 01:39:06;;;;;;;3.58;1.10;;;20.10;99.90;;;;;;6258567;22;20042;-80
2023/07/26 01:41:36;;;;;;;3.47;1.00;;;20.10;99.90;;;;;;6233739;22;20016;-78
2023/07/26 01:44:05;;;;;;;4.13;1.05;;;20.00;99.90;;;;;;6228169;22;20062;-80
2023/07/26 01:46:32;;;;;;;2.33;0.98;;;20.00;99.90;;;;;;6227945;22;20352;-77
2023/07/26 01:49:00;;;;;;;2.28;1.00;;;20.00;99.90;;;;;;6224040;22;20012;-79
2023/07/26 01:51:27;;;;;;;2.05;0.90;;;20.00;99.90;;;;;;6231883;22;20011;-80
2023/07/26 01:53:55;;;;;;;1.70;0.80;;;20.00;99.90;;;;;;6228575;22;20043;-80
2023/07/26 01:56:24;;;;;;;2.95;0.93;;;19.90;99.90;;;;;;6263484;22;20019;-80
2023/07/26 01:58:52;;;;;;;1.30;0.80;;;19.60;99.90;;;;;;6239130;22;20050;-80
2023/07/26 02:01:26;;;;;;;2.47;1.02;;;20.10;99.90;;;;;;6227604;22;20030;-80
2023/07/26 02:03:53;;;;;;;1.65;0.80;;;20.00;99.90;;;;;;6200891;23;20016;-80
2023/07/26 02:06:21;;;;;;;2.92;1.17;;;20.00;99.90;;;;;;6203042;23;20074;-80
2023/07/26 02:08:50;;;;;;;2.45;1.17;;;20.10;99.90;;;;;;6198431;23;20047;-80
2023/07/26 02:11:18;;;;;;;2.70;1.00;;;19.80;99.90;;;;;;6228234;23;20020;-81
2023/07/26 02:13:46;;;;;;;3.55;1.30;;;20.00;99.90;;;;;;6198087;23;20054;-80
2023/07/26 02:16:13;;;;;;;2.75;1.20;;;20.00;99.90;;;;;;6223851;22;20099;-80
2023/07/26 02:18:41;;;;;;;2.20;1.10;;;19.90;99.90;;;;;;6230901;23;20043;-80
2023/07/26 02:21:13;;;;;;;3.30;1.20;;;19.80;99.90;;;;;;6202003;23;20021;-80
2023/07/26 02:23:46;;;;;;;1.85;0.95;;;20.10;99.90;;;;;;6229721;22;20026;-80
2023/07/26 02:26:13;;;;;;;2.20;0.90;;;20.30;99.90;;;;;;6244025;23;20084;-80
2023/07/26 02:28:41;;;;;;;2.22;1.30;;;20.10;99.90;;;;;;6191397;23;20099;-80
2023/07/26 02:31:08;;;;;;;1.73;0.80;;;20.10;99.90;;;;;;6194067;23;20018;-81
2023/07/26 02:33:36;;;;;;;3.67;1.10;;;20.30;99.90;;;;;;6216894;23;20028;-80
2023/07/26 02:36:04;;;;;;;2.17;1.00;;;20.30;99.90;;;;;;6195644;23;20027;-80
2023/07/26 02:38:31;;;;;;;1.73;0.90;;;20.40;99.90;;;;;;6219850;23;20034;-80
2023/07/26 02:40:59;;;;;;;2.90;0.65;;;20.20;99.90;;;;;;6192495;23;20024;-80
2023/07/26 02:43:26;;;;;;;1.92;0.80;;;20.10;99.90;;;;;;6217614;23;20363;-80
2023/07/26 02:46:07;;;;;;;2.65;1.02;;;20.30;99.90;;;;;;6220301;23;20028;-80
2023/07/26 02:48:35;;;;;;;3.28;1.30;;;20.30;99.90;;;;;;6194412;23;20031;-80
2023/07/26 02:51:05;;;;;;;2.00;0.95;;;20.30;99.90;;;;;;6195708;23;20359;-80
2023/07/26 02:53:35;;;;;;;3.53;1.17;;;20.30;99.90;;;;;;6220719;23;20027;-81
2023/07/26 02:56:02;;;;;;;2.47;1.13;;;20.30;99.90;;;;;;6222353;23;20020;-81
2023/07/26 02:58:30;;;;;;;3.05;1.23;;;19.50;99.90;;;;;;6223047;23;20356;-79
2023/07/26 03:00:58;;;;;;;3.28;1.00;;;20.10;99.90;;;;;;6236256;23;20031;-80
2023/07/26 03:03:37;;;;;;;2.45;1.13;;;18.70;99.90;;;;;;6232497;22;20000;31
2023/07/26 03:06:04;;;;;;;2.92;1.00;;;19.90;99.90;;;;;;6239264;22;20087;-80
2023/07/26 03:08:32;;;;;;;2.65;0.85;;;19.90;99.90;;;;;;6237472;22;20107;-80
2023/07/26 03:10:59;;;;;;;2.47;1.20;;;19.90;99.90;;;;;;6234049;23;20040;-80
2023/07/26 03:13:27;;;;;;;2.75;1.20;;;19.90;99.90;;;;;;6257811;22;20024;-80
2023/07/26 03:16:32;;;;;;;2.00;1.20;;;19.90;99.90;;;;;;6256251;22;20024;31
2023/07/26 03:33:25;;;;;;;4.28;1.15;;;20.00;99.90;;;;;;6224240;22;20030;-84
2023/07/26 03:35:54;;;;;;;2.85;1.67;;;20.00;99.90;;;;;;6209016;22;20032;-80
2023/07/26 03:38:21;;;;;;;3.10;1.23;;;19.90;99.90;;;;;;6234495;22;20027;-81
2023/07/26 03:40:49;;;;;;;3.03;1.20;;;20.00;99.90;;;;;;6229540;22;20019;-80
2023/07/26 03:43:18;;;;;;;3.53;1.65;;;19.40;99.90;;;;;;6229762;22;20016;-79
2023/07/26 03:45:48;;;;;;;3.67;1.30;;;19.90;99.90;;;;;;6194137;23;20076;-78
2023/07/26 03:48:16;;;;;;;2.35;1.20;;;19.90;99.90;;;;;;6212053;22;20014;-80
2023/07/26 03:50:48;;;;;;;3.15;1.52;;;19.90;99.90;;;;;;6260257;23;20078;-80
2023/07/26 03:53:16;;;;;;;3.35;1.73;;;20.00;99.90;;;;;;6250155;22;20357;-80
2023/07/26 03:55:43;;;;;;;3.13;1.20;;;20.00;99.90;;;;;;6254053;22;20008;-80
2023/07/26 03:58:17;;;;;;;3.25;1.60;;;19.90;99.90;;;;;;6248450;22;20444;31
2023/07/26 04:00:45;;;;;;;2.95;1.13;;;20.00;99.90;;;;;;6195381;23;19908;-80
2023/07/26 04:03:16;;;;;;;2.55;1.70;;;20.00;99.90;;;;;;6167008;23;20104;-80
2023/07/26 04:05:44;;;;;;;3.00;1.30;;;19.90;99.90;;;;;;6217559;22;20462;-80
2023/07/26 04:08:12;;;;;;;3.30;1.40;;;19.20;99.90;;;;;;6256283;22;20027;-80
2023/07/26 04:10:40;;;;;;;2.05;1.40;;;19.80;99.90;;;;;;6254578;22;20027;-80
2023/07/26 04:13:07;;;;;;;3.13;1.30;;;19.80;99.90;;;;;;6282881;22;20717;-79
2023/07/26 04:15:34;;;;;;;2.70;1.73;;;19.80;99.90;;;;;;6253552;22;20082;-80
2023/07/26 04:18:05;;;;;;;2.50;1.65;;;19.80;99.90;;;;;;6255685;22;20077;-79
2023/07/26 04:20:35;;;;;;;2.67;1.75;;;19.80;99.90;;;;;;6275113;22;20020;-80
2023/07/26 04:23:03;;;;;;;6.00;2.03;;;19.70;99.90;;;;;;6250933;22;20020;-80
2023/07/26 04:25:30;;;;;;;3.65;1.90;;;19.70;99.90;;;;;;6282874;22;20075;-80
2023/07/26 04:28:00;;;;;;;6.18;2.63;;;20.40;99.90;;;;;;6284261;22;20015;-80
2023/07/26 04:30:28;;;;;;;4.18;2.03;;;19.80;99.90;;;;;;6277385;22;20012;-78
2023/07/26 04:32:56;;;;;;;2.97;2.20;;;19.70;99.90;;;;;;6249335;22;20392;-79
2023/07/26 04:35:23;;;;;;;3.30;2.05;;;19.70;99.90;;;;;;6273547;22;20024;-80
2023/07/26 04:37:50;;;;;;;3.05;1.52;;;19.60;99.90;;;;;;6249041;22;20102;-79
2023/07/26 04:40:18;;;;;;;2.42;1.30;;;19.60;99.90;;;;;;6274435;22;20087;-78
2023/07/26 04:42:45;;;;;;;2.63;1.13;;;19.60;99.90;;;;;;6300985;22;20023;-79
2023/07/26 04:45:12;;;;;;;2.28;1.08;;;19.60;99.90;;;;;;6254897;22;20094;-80
2023/07/26 04:47:40;;;;;;;2.38;0.90;;;19.70;99.90;;;;;;6274484;22;20019;-80
2023/07/26 04:50:09;;;;;;;2.25;0.57;;;19.60;99.90;;;;;;6275748;22;20386;-80
2023/07/26 04:52:37;;;;;;;3.38;0.73;;;19.70;99.90;;;;;;6274755;22;20102;-80
2023/07/26 04:55:08;;;;;;;3.60;0.90;;;19.70;99.90;;;;;;6249034;22;20083;-80
2023/07/26 04:57:38;;;;;;;3.75;0.60;;;19.70;99.90;;;;;;6274486;22;20027;-79
2023/07/26 05:00:07;;;;;;;3.47;0.50;;;19.70;99.90;;;;;;6275638;22;20019;-78
2023/07/26 05:02:35;;;;;;;2.50;0.57;;;19.80;99.90;;;;;;6279194;22;20023;-80
2023/07/26 05:05:03;;;;;;;2.08;0.75;;;19.70;99.90;;;;;;6279393;22;20011;-79
2023/07/26 05:07:30;;;;;;;3.45;0.73;;;19.90;99.90;;;;;;6303733;22;20065;-79
2023/07/26 05:09:58;;;;;;;1.38;0.40;;;19.90;99.90;;;;;;6280209;22;20031;-80
2023/07/26 05:12:25;;;;;;;2.75;0.68;;;19.80;99.90;;;;;;6282169;22;20020;-78
2023/07/26 05:14:53;;;;;;;1.40;0.50;;;19.90;99.80;;;;;;6304988;22;20025;-80
2023/07/26 05:17:20;;;;;;;1.63;0.40;;;19.90;99.90;;;;;;6304022;22;20023;-79
2023/07/26 05:19:47;;;;;;;1.85;0.45;;;19.80;99.60;;;;;;6304353;22;20023;-77
2023/07/26 05:22:14;;;;;;;0.70;0.43;;;19.70;98.90;;;;;;6304958;22;20085;-77
2023/07/26 05:24:41;;;;;;;2.38;0.95;;;19.60;99.10;;;;;;6278577;22;20125;-78
2023/07/26 05:27:09;;;;;;;1.20;0.35;;;19.60;98.70;;;;;;6303707;22;20053;-78
2023/07/26 05:29:36;;;;;;;3.33;0.47;;;19.70;99.10;;;;;;6278434;22;20648;-76
2023/07/26 05:32:03;;;;;;;1.45;0.28;;;19.90;98.30;;;;;;6304433;22;20094;-77
2023/07/26 05:34:30;;;;;;;1.40;0.50;;;20.10;98.10;;;;;;6303844;22;20023;-78
2023/07/26 05:36:57;;;;;;;2.05;0.30;;;20.20;98.00;;;;;;6303390;22;20023;-80
2023/07/26 05:39:24;;;;;;;1.42;0.60;;;20.30;97.80;;;;;;6279727;22;20374;-78
2023/07/26 05:41:51;;;;;;;1.83;0.40;;;20.40;97.10;;;;;;6279922;22;20027;-79
2023/07/26 05:44:19;;;;;;;1.88;0.50;;;20.40;96.90;;;;;;6304152;22;20043;-80
2023/07/26 05:46:46;;;;;;;1.75;0.25;;;20.40;96.30;;;;;;6306276;22;20015;-79
2023/07/26 05:49:13;;;;;;;1.73;0.30;;;20.40;96.70;;;;;;6277270;22;20393;-79
2023/07/26 05:51:40;;;;;;;1.42;0.22;;;20.40;96.60;;;;;;6280830;22;20039;-80
2023/07/26 05:54:07;;;;;;;0.98;0.20;;;20.40;96.60;;;;;;6297021;22;20026;-78
2023/07/26 05:56:34;;;;;;;1.23;0.40;;;20.40;96.40;;;;;;6269010;22;20015;-76
2023/07/26 05:59:03;;;;;;;2.03;0.30;;;20.30;96.50;;;;;;6291599;22;20073;-81
2023/07/26 06:01:31;;;;;;;3.40;0.40;;;20.30;97.30;;;;;;6267527;22;20053;-79
2023/07/26 06:03:59;;;;;;;2.85;0.30;;;20.30;97.20;;;;;;6293081;22;20503;-79
2023/07/26 06:06:26;;;;;;;1.65;0.50;;;20.20;97.10;;;;;;6295124;22;20026;-81
2023/07/26 06:09:03;;;;;;;1.42;0.40;;;20.30;97.20;;;;;;6294911;22;20029;-77
2023/07/26 06:11:31;;;;;;;1.20;0.30;;;20.30;97.30;;;;;;6269868;22;20019;-79
2023/07/26 06:14:09;;;;;;;1.98;0.30;;;20.20;97.40;;;;;;6294163;22;20368;-81
2023/07/26 06:16:37;;;;;;;1.50;0.30;;;20.20;97.20;;;;;;6295334;22;20018;-80
2023/07/26 06:19:04;;;;;;;1.80;0.40;;;20.10;97.40;;;;;;6293104;22;20043;-77
2023/07/26 06:21:33;;;;;;;1.55;0.50;;;20.10;97.50;;;;;;6267712;22;20025;-79
2023/07/26 06:24:01;;;;;;;2.28;0.30;;;20.10;97.80;;;;;;6295102;22;20042;-79
2023/07/26 06:26:28;;;;;;;1.08;0.30;;;20.00;97.70;;;;;;6295777;22;20065;-78
2023/07/26 06:28:55;;;;;;;1.42;0.40;;;19.90;97.30;;;;;;6295215;22;20019;-79
2023/07/26 06:31:22;;;;;;;1.38;0.32;;;19.80;98.00;;;;;;6292794;22;20027;-77
2023/07/26 06:33:49;;;;;;;0.95;0.30;;;19.90;98.30;;;;;;6268567;22;20027;-80
2023/07/26 06:36:16;;;;;;;1.90;0.40;;;19.80;98.70;;;;;;6293965;22;20024;-79
2023/07/26 06:38:48;;;;;;;3.22;0.82;;;19.80;99.20;;;;;;6297487;22;20455;-80
2023/07/26 06:41:16;;;;;;;1.70;0.43;;;19.90;99.90;;;;;;6277257;22;20073;-80
2023/07/26 06:43:44;;;;;;;3.55;0.50;;;19.90;99.90;;;;;;6298138;22;20035;-80
2023/07/26 06:46:11;;;;;;;3.75;0.50;;;19.80;99.90;;;;;;6242855;22;20457;-78
2023/07/26 06:48:38;;;;;;;2.47;0.32;;;19.80;99.90;;;;;;6271100;22;20020;-80
2023/07/26 06:51:05;;;;;;;2.08;0.55;;;19.80;99.90;;;;;;6295439;22;20035;-79
2023/07/26 06:53:32;;;;;;;1.98;0.55;;;19.80;99.90;;;;;;6295637;22;20019;-79
2023/07/26 06:56:00;;;;;;;1.40;0.52;;;19.80;99.90;;;;;;6270962;22;20019;-79
2023/07/26 06:58:27;;;;;;;2.55;0.40;;;19.80;99.90;;;;;;6295546;22;20023;-80
2023/07/26 07:00:55;;;;;;;1.75;0.50;;;19.80;99.90;;;;;;6295259;22;20027;-80
2023/07/26 07:03:22;;;;;;;2.00;0.50;;;19.90;99.90;;;;;;6269538;22;20144;-80
2023/07/26 07:05:50;;;;;;;1.05;0.38;;;19.80;99.90;;;;;;6299120;22;20465;-80
2023/07/26 07:08:17;;;;;;;4.55;0.57;;;19.70;99.90;;;;;;6269931;22;20078;-79
2023/07/26 07:10:44;;;;;;;0.82;0.30;;;19.70;99.90;;;;;;6290830;22;20348;-78
2023/07/26 07:13:13;;;;;;;0.98;0.50;;;19.70;99.90;;;;;;6266081;22;20024;-79
2023/07/26 07:15:40;;;;;;;1.52;0.52;;;19.80;99.90;;;;;;6295009;22;20106;-80
2023/07/26 07:18:07;;;;;;;5.45;0.40;;;19.70;99.90;;;;;;6270918;22;20025;-80
2023/07/26 07:20:43;;;;;;;1.88;0.35;;;19.60;99.90;;;;;;6295908;22;20519;-80
2023/07/26 07:23:11;;;;;;;1.80;0.50;;;19.60;99.90;;;;;;6268184;22;20026;-78
2023/07/26 07:25:39;;;;;;;1.33;0.30;;;19.80;99.90;;;;;;6263136;22;20023;-80
2023/07/26 07:28:07;;;;;;;2.22;0.40;;;19.10;99.90;;;;;;6270885;22;20058;-78
2023/07/26 07:30:35;;;;;;;3.65;0.63;;;19.80;99.90;;;;;;6295618;22;20015;-78
2023/07/26 07:33:02;;;;;;;1.90;0.55;;;19.90;99.90;;;;;;6294036;22;20019;-78
2023/07/26 07:35:29;;;;;;;1.13;0.35;;;19.90;99.90;;;;;;6295898;22;20451;-77
2023/07/26 07:37:57;;;;;;;2.15;1.15;;;19.80;99.90;;;;;;6296111;22;20434;-78
2023/07/26 07:40:24;;;;;;;2.60;0.40;;;19.70;99.90;;;;;;6297395;22;20415;-78
2023/07/26 07:42:51;;;;;;;2.00;0.38;;;19.60;99.90;;;;;;6293151;22;20084;-79
2023/07/26 07:45:18;;;;;;;1.25;0.63;;;19.50;99.90;;;;;;6294110;22;20073;-78
2023/07/26 07:47:46;;;;;;;1.05;0.30;;;19.30;99.90;;;;;;6269348;22;20053;-78
2023/07/26 07:50:14;;;;;;;1.73;0.47;;;19.20;99.90;;;;;;6295073;22;20030;-78
2023/07/26 07:52:41;;;;;;;1.52;0.40;;;19.10;99.90;;;;;;6269493;22;20023;-79
2023/07/26 07:55:08;;;;;;;2.15;0.50;;;19.20;99.90;;;;;;6295963;22;20080;-80
2023/07/26 07:57:36;;;;;;;1.17;0.50;;;19.20;99.90;;;;;;6271199;22;20073;-78
2023/07/26 08:00:11;;;;;;;1.30;0.40;;;19.20;99.90;;;;;;6311161;22;20512;-81
2023/07/26 08:02:40;;;;;;;1.73;0.60;;;19.20;99.90;;;;;;6308170;22;20058;-81
2023/07/26 08:05:10;;;;;;;1.17;0.40;;;19.30;99.90;;;;;;6284302;22;20050;-80
2023/07/26 08:07:38;;;;;;;1.00;0.40;;;19.30;99.90;;;;;;6311488;22;20354;-81
2023/07/26 08:10:06;;;;;;;1.23;0.40;;;19.30;99.90;;;;;;6277729;22;20015;-81
2023/07/26 08:12:36;;;;;;;1.27;0.55;;;19.30;99.90;;;;;;6281454;22;20023;-80
2023/07/26 08:15:03;;;;;;;2.58;0.80;;;19.20;99.90;;;;;;6281641;22;20049;-81
2023/07/26 08:17:31;;;;;;;3.28;0.50;;;19.20;99.90;;;;;;6278852;22;20015;-81
2023/07/26 08:20:01;;;;;;;2.65;0.57;;;19.30;99.90;;;;;;6301204;22;20504;-81
2023/07/26 08:22:28;;;;;;;1.85;0.60;;;19.30;99.90;;;;;;6269586;22;20022;-81
2023/07/26 08:24:55;;;;;;;1.95;0.65;;;19.40;99.90;;;;;;6294909;22;20068;-81
2023/07/26 08:27:23;;;;;;;1.63;0.70;;;19.50;99.90;;;;;;6265499;22;20023;-81
2023/07/26 08:29:51;;;;;;;1.67;0.77;;;19.50;99.90;;;;;;6295542;22;20023;-81
2023/07/26 08:32:18;;;;;;;1.83;0.70;;;19.60;99.90;;;;;;6268621;22;20023;-81
2023/07/26 08:34:45;;;;;;;1.38;0.60;;;19.50;99.90;;;;;;6267101;22;20425;-81
2023/07/26 08:37:12;;;;;;;1.48;0.43;;;19.50;99.90;;;;;;6272221;22;20102;-81
2023/07/26 08:39:42;;;;;;;3.13;0.95;;;19.50;99.90;;;;;;6301277;22;20038;-81
2023/07/26 08:42:10;;;;;;;4.30;0.73;;;19.40;99.90;;;;;;6306765;22;20039;-81
2023/07/26 08:44:39;;;;;;;2.35;0.55;;;19.50;99.90;;;;;;6273941;22;20011;-81
2023/07/26 08:47:09;;;;;;;2.45;0.73;;;19.60;99.90;;;;;;6275088;22;20027;-81
2023/07/26 08:49:36;;;;;;;1.60;0.60;;;19.50;99.90;;;;;;6274884;22;20046;-81
2023/07/26 08:52:05;;;;;;;1.30;0.40;;;19.50;99.90;;;;;;6301418;22;20023;-81
2023/07/26 08:54:33;;;;;;;2.92;0.70;;;19.50;99.90;;;;;;6297173;22;20019;-80
2023/07/26 08:57:02;;;;;;;1.80;0.43;;;19.70;99.90;;;;;;6270292;22;20073;-79
2023/07/26 08:59:29;;;;;;;1.40;0.50;;;19.50;99.90;;;;;;6297140;22;20026;-80
2023/07/26 09:02:00;;;;;;;1.50;0.50;;;19.50;99.90;;;;;;6275799;22;20417;-80
2023/07/26 09:04:31;;;;;;;1.67;0.60;;;19.50;99.90;;;;;;6298368;22;20027;-81
2023/07/26 09:07:03;;;;;;;2.92;0.73;;;19.50;99.90;;;;;;6300348;22;20334;-78
2023/07/26 09:09:32;;;;;;;1.58;0.73;;;19.50;99.90;;;;;;6272601;22;20026;-80
2023/07/26 09:12:01;;;;;;;2.35;0.82;;;19.50;99.90;;;;;;6296628;22;20019;-81
2023/07/26 09:14:31;;;;;;;3.45;0.82;;;19.60;99.90;;;;;;6297870;22;20026;-80
2023/07/26 09:17:01;;;;;;;2.55;0.57;;;19.50;99.90;;;;;;6276345;22;20764;-81
2023/07/26 09:19:30;;;;;;;0.90;0.50;;;19.40;99.90;;;;;;6280273;22;20449;-80
2023/07/26 09:22:01;;;;;;;3.90;1.02;;;19.40;99.90;;;;;;6280531;22;20023;-81
2023/07/26 09:24:35;;;;;;;3.53;1.02;;;19.40;99.90;;;;;;6253322;22;20111;-81
2023/07/26 09:27:10;;;;;;;2.97;0.70;;;19.40;99.90;;;;;;6272057;22;20360;-81
2023/07/26 09:29:53;;;;;;;2.75;0.57;;;19.50;99.90;;;;;;6294516;22;20045;-79
2023/07/26 09:32:27;;;;;;;1.48;0.50;;;19.40;99.90;;;;;;6270255;22;20130;-81
2023/07/26 09:34:59;;;;;;;2.53;0.77;;;19.50;99.90;;;;;;6295160;22;20032;-81
2023/07/26 09:37:27;;;;;;;2.45;0.93;;;19.70;99.90;;;;;;6278866;22;20019;-80
2023/07/26 09:39:55;;;;;;;1.83;0.60;;;19.70;99.90;;;;;;6301595;22;20509;-80
2023/07/26 09:42:26;;;;;;;2.20;0.38;;;19.70;99.90;;;;;;6301219;22;20455;-80
2023/07/26 09:44:57;;;;;;;2.75;0.57;;;19.70;99.90;;;;;;6242545;22;20043;-80
2023/07/26 09:47:35;;;;;;;1.70;0.47;;;19.60;99.90;;;;;;6266317;22;20021;-78
2023/07/26 09:50:06;;;;;;;0.90;0.40;;;19.70;99.90;;;;;;6262604;22;20398;-79
2023/07/26 09:52:43;;;;;;;1.23;0.43;;;19.80;99.90;;;;;;6245838;22;20020;-81
2023/07/26 09:55:11;;;;;;;2.90;0.40;;;19.90;99.90;;;;;;6263727;22;20058;-80
2023/07/26 09:57:48;;;;;;;2.30;0.50;;;19.80;99.90;;;;;;6263045;22;20493;-80
2023/07/26 10:00:17;;;;;;;2.88;0.50;;;19.90;99.90;;;;;;6260538;22;20069;-79
2023/07/26 10:02:59;;;;;;;1.95;0.40;;;20.10;99.90;;;;;;6233219;22;20089;-80
2023/07/26 10:05:34;;;;;;;1.23;0.50;;;20.20;99.90;;;;;;6261919;22;20054;-79
2023/07/26 10:08:02;;;;;;;1.33;0.40;;;20.20;99.90;;;;;;6261739;22;20023;-80
2023/07/26 10:10:30;;;;;;;2.05;0.60;;;20.40;99.10;;;;;;6237945;22;20051;-80
2023/07/26 10:13:00;;;;;;;0.90;0.40;;;20.20;97.80;;;;;;6264269;22;20019;-79
2023/07/26 10:15:31;;;;;;;1.20;0.40;;;20.40;98.00;;;;;;6261829;22;20035;-80
2023/07/26 10:18:00;;;;;;;1.55;0.50;;;20.60;99.00;;;;;;6236175;22;20453;-77
2023/07/26 10:20:28;;;;;;;2.65;0.60;;;20.60;97.10;;;;;;6267987;22;20030;-80
2023/07/26 10:23:04;;;;;;;1.33;0.30;;;20.70;97.40;;;;;;6264442;22;20407;-80
2023/07/26 10:25:33;;;;;;;0.98;0.50;;;20.70;97.60;;;;;;6264429;22;20024;-80
2023/07/26 10:28:01;;;;;;;1.38;0.68;;;20.70;96.20;;;;;;6263192;22;20440;-79
2023/07/26 10:30:29;;;;;;;1.52;0.50;;;20.70;96.10;;;;;;6265126;22;20058;-78
2023/07/26 10:32:59;;;;;;;1.10;0.32;;;20.70;96.80;;;;;;6266363;22;20474;-80
2023/07/26 10:35:34;;;;;;;2.05;0.60;;;20.60;96.50;;;;;;6238402;22;20030;-79
2023/07/26 10:38:04;;;;;;;1.52;0.40;;;20.70;97.50;;;;;;6298733;22;20023;-79
2023/07/26 10:40:35;;;;;;;2.60;0.50;;;20.70;96.30;;;;;;6268671;22;20155;-80
2023/07/26 10:43:21;;;;;;;2.28;0.30;;;20.90;96.70;;;;;;6271486;22;20375;-80
2023/07/26 10:45:51;;;;;;;1.92;0.40;;;21.00;95.20;;;;;;6298214;22;20077;-80
2023/07/26 10:48:39;;;;;;;2.47;0.40;;;21.00;94.40;;;;;;6270310;22;20019;-78
2023/07/26 10:51:45;;;;;;;1.30;0.40;;;20.90;94.20;;;;;;6272932;22;20041;-80
2023/07/26 10:54:49;;;;;;;1.73;0.45;;;21.10;94.20;;;;;;6270642;22;20035;-78
2023/07/26 10:57:27;;;;;;;1.60;0.73;;;21.00;94.40;;;;;;6299150;22;20077;-80
2023/07/26 11:00:18;;;;;;;0.63;0.30;;;21.10;95.00;;;;;;6295492;22;20035;-80
2023/07/26 11:03:04;;;;;;;0.60;0.32;;;21.00;94.20;;;;;;6294935;22;20023;-81
2023/07/26 11:05:38;;;;;;;2.17;0.68;;;20.90;95.20;;;;;;6268141;22;20113;-80
2023/07/26 11:08:08;;;;;;;2.08;0.70;;;21.00;95.80;;;;;;6235367;22;20023;-79
2023/07/26 11:10:51;;;;;;;1.70;0.52;;;21.30;96.30;;;;;;6272101;22;20047;-80
2023/07/26 11:13:28;;;;;;;1.92;0.52;;;21.40;96.30;;;;;;6269246;22;20071;-77
2023/07/26 11:15:56;;;;;;;1.67;0.50;;;21.40;94.20;;;;;;6269389;22;20355;-80
2023/07/26 11:18:45;;;;;;;1.52;0.40;;;21.50;93.40;;;;;;6271266;22;20032;-79
2023/07/26 11:21:15;;;;;;;1.15;0.40;;;21.70;93.50;;;;;;6265258;22;20058;-80
2023/07/26 11:23:44;;;;;;;0.60;0.20;;;21.70;92.30;;;;;;6245621;22;20608;-78
2023/07/26 11:26:12;;;;;;;0.90;0.43;;;21.60;91.90;;;;;;6213430;22;20026;-79
2023/07/26 11:28:41;;;;;;;1.23;0.70;;;21.30;92.90;;;;;;6239843;22;20023;-80
2023/07/26 11:31:36;;;;;;;1.45;1.00;;;21.10;93.60;;;;;;6267952;22;20390;-80
2023/07/26 11:34:19;;;;;;;4.10;1.70;;;21.10;93.90;;;;;;6208215;23;20522;-78
2023/07/26 11:37:14;;;;;;;2.67;0.70;;;21.00;93.90;;;;;;6208844;23;20468;-79
2023/07/26 11:39:42;;;;;;;3.40;0.93;;;21.10;94.40;;;;;;6211833;23;20017;-79
2023/07/26 11:42:17;;;;;;;1.00;0.82;;;21.20;93.20;;;;;;6207504;23;20030;-80
2023/07/26 11:44:45;;;;;;;1.70;0.65;;;21.10;93.20;;;;;;6166064;22;20074;-80
2023/07/26 11:47:12;;;;;;;1.45;0.80;;;21.20;92.90;;;;;;6253713;22;20111;-81
2023/07/26 11:49:39;;;;;;;0.80;0.60;;;21.60;92.60;;;;;;6254524;22;20455;-80
2023/07/26 11:52:17;;;;;;;5.68;1.55;;;21.50;91.80;;;;;;6246207;22;20510;-81
2023/07/26 11:54:59;;;;;;;1.35;0.70;;;21.40;92.20;;;;;;6250988;22;20016;-80
2023/07/26 11:57:31;;;;;;;1.25;0.80;;;21.40;91.40;;;;;;6224409;22;20031;-80
2023/07/26 12:00:04;;;;;;;1.83;0.70;;;21.30;91.70;;;;;;6247746;22;20023;-81
2023/07/26 12:02:41;;;;;;;1.17;0.55;;;21.40;92.00;;;;;;6250734;22;20123;-79
2023/07/26 12:05:28;;;;;;;1.25;0.57;;;21.30;91.30;;;;;;6271747;22;20027;-81
2023/07/26 12:08:20;;;;;;;0.80;0.50;;;21.10;91.90;;;;;;6291296;22;20581;-80
2023/07/26 12:10:48;;;;;;;1.00;0.43;;;21.30;91.90;;;;;;6276742;22;20019;-80
2023/07/26 12:13:21;;;;;;;1.83;0.60;;;21.20;91.20;;;;;;6288051;22;20019;-80
2023/07/26 12:15:50;;;;;;;2.05;0.50;;;21.40;91.70;;;;;;6307727;22;20027;-80
2023/07/26 12:18:23;;;;;;;2.45;0.55;;;21.30;91.30;;;;;;6304808;22;20015;-80
2023/07/26 12:20:59;;;;;;;1.73;0.50;;;21.10;91.20;;;;;;6258243;22;20057;-80
2023/07/26 12:24:03;;;;;;;0.93;0.32;;;21.30;91.60;;;;;;6278742;22;20053;-80
2023/07/26 12:26:34;;;;;;;0.80;0.52;;;21.20;91.00;;;;;;6276590;22;20719;-79
2023/07/26 12:29:04;;;;;;;;;;;21.30;91.00;;;;;;6303245;22;20030;-81
2023/07/26 12:31:34;;;;;;;1.52;0.38;;;21.10;91.50;;;;;;6296304;22;19918;-79
2023/07/26 12:34:15;;;;;;;1.50;0.73;;;21.10;91.50;;;;;;6280643;22;20523;-80
2023/07/26 12:36:47;;;;;;;1.90;0.50;;;20.90;91.80;;;;;;6278699;22;20516;-81
2023/07/26 12:39:37;;;;;;;0.73;0.40;;;21.10;92.50;;;;;;6304603;22;20540;-80
2023/07/26 12:42:06;;;;;;;2.70;0.60;;;21.10;91.70;;;;;;6245784;22;20023;-81
2023/07/26 12:44:33;;;;;;;2.22;0.60;;;21.20;91.20;;;;;;6280624;22;20563;-80
2023/07/26 12:47:09;;;;;;;2.60;0.50;;;21.10;91.20;;;;;;6281874;22;20045;-80
2023/07/26 12:50:29;;;;;;;2.95;0.43;;;21.00;91.20;;;;;;6268397;22;20069;-92
2023/07/26 13:01:36;;;;;;;1.15;0.40;;;20.90;91.50;;;;;;5974415;24;20027;-86
2023/07/26 13:05:37;;;;;;;0.52;0.30;;;20.50;91.00;;;;;;5794801;24;20084;-92
2023/07/26 13:08:58;;;;;;;1.55;0.28;;;20.70;90.70;;;;;;5792088;24;20034;-88
2023/07/26 13:16:29;;;;;;;;;;;21.20;90.60;;;;;;5811155;24;20025;-84
2023/07/26 13:20:17;;;;;;;0.55;0.30;;;21.80;90.50;;;;;;5837584;24;19915;-87
2023/07/26 13:23:54;;;;;;;2.25;0.30;;;21.00;90.50;;;;;;5832445;24;20041;-90
2023/07/26 13:27:08;;;;;;;1.20;0.20;;;21.00;90.10;;;;;;5828369;24;20026;-87
2023/07/26 13:30:52;;;;;;;1.13;0.30;;;21.00;90.30;;;;;;5858463;24;20794;-84
2023/07/26 13:35:18;;;;;;;;;;;;;;;;;;;;;
2023/07/26 13:38:33;;;;;;;0.47;0.10;;;21.00;90.30;;;;;;5923988;24;20050;-85
2023/07/26 13:48:29;;;;;;;0.25;0.10;;;20.90;90.00;;;;;;5897968;23;20028;-91
2023/07/26 13:54:54;;;;;;;1.95;0.10;;;20.80;90.50;;;;;;5937639;24;20021;-86
2023/07/26 14:11:34;;;;;;;0.10;0.00;;;20.60;90.60;;;;;;5756660;24;20043;-90
2023/07/26 14:14:37;;;;;;;1.60;0.00;;;20.70;91.10;;;;;;5781564;24;20093;-86
2023/07/26 14:17:34;;;;;;;1.02;0.00;;;20.60;91.10;;;;;;5739904;24;20030;-91
2023/07/26 14:20:21;;;;;;;1.08;0.00;;;20.30;91.40;;;;;;5942599;24;20024;-88
2023/07/26 14:23:37;;;;;;;0.10;0.00;;;20.70;90.50;;;;;;5947765;24;20088;-91
2023/07/26 14:26:19;;;;;;;1.25;0.00;;;20.50;89.10;;;;;;5899811;23;20022;-84
2023/07/26 14:28:58;;;;;;;0.28;0.00;;;20.60;89.10;;;;;;6035229;23;20031;-83
2023/07/26 14:31:56;;;;;;;0.10;0.00;;;20.80;88.30;;;;;;6037457;23;20045;-84